createdAt,value
2019-02-06T00:00:27.283Z,2.12
2019-02-06T00:01:26.743Z,2.06
2019-02-06T00:02:26.178Z,2.06
2019-02-06T00:03:26.318Z,2
2019-02-06T00:04:26.013Z,2.06
2019-02-06T00:05:25.918Z,2
2019-02-06T00:06:27.459Z,2
2019-02-06T00:07:26.040Z,2.06
2019-02-06T00:08:26.621Z,2
2019-02-06T00:09:26.304Z,2.06
2019-02-06T00:10:26.492Z,2
2019-02-06T00:11:25.827Z,2
2019-02-06T00:12:26.167Z,2
2019-02-06T00:13:26.521Z,2
2019-02-06T00:14:26.307Z,2
2019-02-06T00:15:26.669Z,2
2019-02-06T00:16:26.146Z,2.06
2019-02-06T00:17:26.580Z,2.06
2019-02-06T00:18:26.443Z,2
2019-02-06T00:19:26.005Z,2
2019-02-06T00:20:26.237Z,2.06
2019-02-06T00:21:28.355Z,2
2019-02-06T00:22:26.152Z,2
2019-02-06T00:23:26.445Z,2
2019-02-06T00:24:27.167Z,2
2019-02-06T00:25:27.719Z,2
2019-02-06T00:26:26.241Z,1.94
2019-02-06T00:27:26.167Z,2
2019-02-06T00:28:25.925Z,2
2019-02-06T00:29:26.049Z,1.94
2019-02-06T00:30:25.893Z,2
2019-02-06T00:31:25.896Z,1.94
2019-02-06T00:32:26.191Z,2
2019-02-06T00:33:26.187Z,1.94
2019-02-06T00:34:25.971Z,2
2019-02-06T00:35:26.563Z,2
2019-02-06T00:36:26.199Z,1.94
2019-02-06T00:37:25.841Z,1.94
2019-02-06T00:38:26.136Z,1.94
2019-02-06T00:39:26.898Z,1.94
2019-02-06T00:40:26.146Z,1.87
2019-02-06T00:41:26.145Z,1.87
2019-02-06T00:42:26.954Z,1.94
2019-02-06T00:43:25.977Z,1.87
2019-02-06T00:44:27.468Z,1.94
2019-02-06T00:45:25.811Z,1.87
2019-02-06T00:46:26.239Z,1.87
2019-02-06T00:47:25.862Z,1.87
2019-02-06T00:48:25.837Z,1.94
2019-02-06T00:49:25.854Z,1.94
2019-02-06T00:50:25.858Z,1.87
2019-02-06T00:51:26.097Z,1.94
2019-02-06T00:52:28.373Z,1.87
2019-02-06T00:53:26.039Z,1.87
2019-02-06T00:54:26.121Z,1.87
2019-02-06T00:55:25.783Z,1.87
2019-02-06T00:56:25.790Z,1.87
2019-02-06T00:57:25.991Z,1.81
2019-02-06T00:58:26.143Z,1.81
2019-02-06T00:59:26.147Z,1.81
2019-02-06T01:00:25.822Z,1.75
2019-02-06T01:01:25.796Z,1.75
2019-02-06T01:02:26.381Z,1.75
2019-02-06T01:03:25.885Z,1.75
2019-02-06T01:04:25.942Z,1.75
2019-02-06T01:05:39.083Z,1.75
2019-02-06T01:06:25.767Z,1.69
2019-02-06T01:07:27.707Z,1.69
2019-02-06T01:08:26.106Z,1.69
2019-02-06T01:09:25.776Z,1.69
2019-02-06T01:10:25.775Z,1.69
2019-02-06T01:11:25.883Z,1.69
2019-02-06T01:12:26.448Z,1.62
2019-02-06T01:13:25.783Z,1.62
2019-02-06T01:14:25.889Z,1.56
2019-02-06T01:15:28.187Z,1.62
2019-02-06T01:16:25.851Z,1.56
2019-02-06T01:17:26.294Z,1.56
2019-02-06T01:18:26.910Z,1.5
2019-02-06T01:19:26.493Z,1.56
2019-02-06T01:20:25.823Z,1.5
2019-02-06T01:21:25.901Z,1.5
2019-02-06T01:22:27.684Z,1.5
2019-02-06T01:23:26.520Z,1.44
2019-02-06T01:24:25.758Z,1.44
2019-02-06T01:25:26.226Z,1.44
2019-02-06T01:26:25.863Z,1.44
2019-02-06T01:27:25.767Z,1.37
2019-02-06T01:28:26.243Z,1.37
2019-02-06T01:29:26.252Z,1.37
2019-02-06T01:30:28.641Z,1.31
2019-02-06T01:31:25.896Z,1.31
2019-02-06T01:32:25.738Z,1.25
2019-02-06T01:33:25.754Z,1.25
2019-02-06T01:34:26.145Z,1.25
2019-02-06T01:35:25.900Z,1.25
2019-02-06T01:36:26.215Z,1.25
2019-02-06T01:37:27.439Z,1.19
2019-02-06T01:38:25.757Z,1.19
2019-02-06T01:39:26.106Z,1.12
2019-02-06T01:40:25.767Z,1.19
2019-02-06T01:41:25.856Z,1.12
2019-02-06T01:42:25.713Z,1.12
2019-02-06T01:43:26.145Z,1.06
2019-02-06T01:44:26.147Z,1.06
2019-02-06T01:45:28.415Z,1.12
2019-02-06T01:46:25.877Z,1.06
2019-02-06T01:47:25.919Z,1.06
2019-02-06T01:48:26.080Z,1.06
2019-02-06T01:49:25.917Z,1.06
2019-02-06T01:50:26.259Z,1
2019-02-06T01:51:26.014Z,1
2019-02-06T01:52:26.923Z,1
2019-02-06T01:53:25.974Z,1
2019-02-06T01:54:25.891Z,1
2019-02-06T01:55:26.140Z,0.94
2019-02-06T01:56:25.713Z,0.94
2019-02-06T01:57:26.036Z,0.88
2019-02-06T01:58:26.350Z,0.88
2019-02-06T01:59:25.762Z,0.88
2019-02-06T02:00:28.205Z,0.88
2019-02-06T02:01:25.804Z,0.88
2019-02-06T02:02:25.747Z,0.81
2019-02-06T02:03:25.696Z,0.88
2019-02-06T02:04:25.964Z,0.81
2019-02-06T02:05:25.811Z,0.81
2019-02-06T02:06:25.686Z,0.81
2019-02-06T02:07:26.859Z,0.75
2019-02-06T02:08:25.926Z,0.75
2019-02-06T02:09:25.737Z,0.75
2019-02-06T02:10:26.120Z,0.69
2019-02-06T02:11:25.775Z,0.75
2019-02-06T02:12:25.793Z,0.69
2019-02-06T02:13:25.896Z,0.69
2019-02-06T02:14:26.145Z,0.75
2019-02-06T02:15:27.894Z,0.75
2019-02-06T02:16:25.683Z,0.75
2019-02-06T02:17:25.770Z,0.75
2019-02-06T02:18:25.685Z,0.81
2019-02-06T02:19:25.674Z,0.81
2019-02-06T02:20:25.986Z,0.75
2019-02-06T02:21:26.077Z,0.81
2019-02-06T02:22:25.748Z,0.81
2019-02-06T02:23:28.049Z,0.81
2019-02-06T02:24:25.699Z,0.81
2019-02-06T02:25:25.665Z,0.81
2019-02-06T02:26:26.023Z,0.81
2019-02-06T02:27:25.704Z,0.81
2019-02-06T02:28:26.017Z,0.81
2019-02-06T02:29:26.004Z,0.81
2019-02-06T02:30:25.895Z,0.88
2019-02-06T02:31:25.816Z,0.88
2019-02-06T02:32:25.945Z,0.88
2019-02-06T02:33:25.699Z,0.88
2019-02-06T02:34:25.874Z,0.88
2019-02-06T02:35:25.654Z,0.94
2019-02-06T02:36:25.744Z,0.88
2019-02-06T02:37:25.698Z,0.88
2019-02-06T02:38:26.677Z,0.94
2019-02-06T02:39:25.649Z,0.88
2019-02-06T02:40:25.694Z,0.94
2019-02-06T02:41:25.764Z,0.94
2019-02-06T02:42:25.662Z,0.94
2019-02-06T02:43:25.648Z,0.94
2019-02-06T02:44:25.705Z,0.94
2019-02-06T02:45:25.704Z,0.94
2019-02-06T02:46:27.484Z,0.88
2019-02-06T02:47:25.675Z,0.94
2019-02-06T02:48:25.632Z,0.88
2019-02-06T02:49:25.718Z,0.88
2019-02-06T02:50:25.697Z,0.88
2019-02-06T02:51:25.733Z,0.88
2019-02-06T02:52:25.742Z,0.94
2019-02-06T02:53:25.612Z,0.88
2019-02-06T02:54:25.702Z,0.94
2019-02-06T02:55:25.907Z,0.88
2019-02-06T02:56:25.655Z,0.94
2019-02-06T02:57:25.673Z,0.88
2019-02-06T02:58:25.640Z,0.88
2019-02-06T02:59:25.741Z,0.88
2019-02-06T03:00:25.635Z,0.88
2019-02-06T03:01:26.967Z,0.88
2019-02-06T03:02:25.932Z,0.94
2019-02-06T03:03:25.658Z,0.94
2019-02-06T03:04:25.699Z,0.81
2019-02-06T03:05:25.782Z,0.88
2019-02-06T03:06:28.991Z,0.88
2019-02-06T03:07:25.844Z,0.88
2019-02-06T03:08:25.596Z,0.88
2019-02-06T03:09:28.046Z,0.88
2019-02-06T03:10:25.698Z,0.88
2019-02-06T03:11:25.658Z,0.88
2019-02-06T03:12:25.616Z,0.88
2019-02-06T03:13:25.664Z,0.88
2019-02-06T03:14:25.888Z,0.81
2019-02-06T03:15:25.989Z,0.88
2019-02-06T03:16:25.848Z,0.88
2019-02-06T03:17:26.072Z,0.81
2019-02-06T03:18:25.679Z,0.81
2019-02-06T03:19:25.617Z,0.81
2019-02-06T03:20:25.673Z,0.81
2019-02-06T03:21:25.707Z,0.81
2019-02-06T03:22:25.898Z,0.81
2019-02-06T03:23:25.586Z,0.75
2019-02-06T03:24:27.118Z,0.75
2019-02-06T03:25:25.682Z,0.69
2019-02-06T03:26:25.564Z,0.75
2019-02-06T03:27:25.654Z,0.75
2019-02-06T03:28:25.632Z,0.69
2019-02-06T03:29:25.821Z,0.75
2019-02-06T03:30:26.388Z,0.69
2019-02-06T03:31:25.799Z,0.69
2019-02-06T03:32:28.404Z,0.69
2019-02-06T03:33:25.598Z,0.69
2019-02-06T03:34:25.586Z,0.69
2019-02-06T03:35:26.387Z,0.69
2019-02-06T03:36:25.578Z,0.69
2019-02-06T03:37:25.619Z,0.62
2019-02-06T03:38:26.197Z,0.62
2019-02-06T03:39:25.714Z,0.62
2019-02-06T03:40:25.567Z,0.62
2019-02-06T03:41:25.699Z,0.62
2019-02-06T03:42:25.826Z,0.56
2019-02-06T03:43:25.830Z,0.56
2019-02-06T03:44:25.918Z,0.5
2019-02-06T03:45:26.769Z,0.5
2019-02-06T03:46:25.610Z,0.44
2019-02-06T03:47:27.804Z,0.44
2019-02-06T03:48:25.662Z,0.37
2019-02-06T03:49:25.603Z,0.37
2019-02-06T03:50:25.590Z,0.37
2019-02-06T03:51:25.735Z,0.37
2019-02-06T03:52:25.670Z,0.31
2019-02-06T03:53:25.534Z,0.31
2019-02-06T03:54:25.882Z,0.25
2019-02-06T03:55:25.829Z,0.25
2019-02-06T03:56:25.546Z,0.31
2019-02-06T03:57:25.572Z,0.25
2019-02-06T03:58:25.716Z,0.31
2019-02-06T03:59:26.105Z,0.31
2019-02-06T04:00:25.811Z,0.31
2019-02-06T04:01:25.509Z,0.37
2019-02-06T04:02:27.062Z,0.31
2019-02-06T04:03:25.554Z,0.31
2019-02-06T04:04:25.742Z,0.25
2019-02-06T04:05:25.968Z,0.25
2019-02-06T04:06:25.617Z,0.25
2019-02-06T04:07:25.762Z,0.25
2019-02-06T04:08:26.004Z,0.25
2019-02-06T04:09:25.615Z,0.31
2019-02-06T04:10:27.891Z,0.31
2019-02-06T04:11:25.886Z,0.31
2019-02-06T04:12:25.597Z,0.31
2019-02-06T04:13:25.659Z,0.31
2019-02-06T04:14:25.705Z,0.25
2019-02-06T04:15:25.532Z,0.25
2019-02-06T04:16:25.590Z,0.25
2019-02-06T04:17:25.641Z,0.25
2019-02-06T04:18:25.593Z,0.25
2019-02-06T04:19:25.534Z,0.25
2019-02-06T04:20:25.616Z,0.19
2019-02-06T04:21:25.770Z,0.19
2019-02-06T04:22:25.529Z,0.19
2019-02-06T04:23:25.507Z,0.25
2019-02-06T04:24:25.518Z,0.25
2019-02-06T04:25:26.962Z,0.19
2019-02-06T04:26:25.613Z,0.31
2019-02-06T04:27:25.514Z,0.25
2019-02-06T04:28:25.635Z,0.31
2019-02-06T04:29:25.521Z,0.25
2019-02-06T04:30:25.699Z,0.25
2019-02-06T04:31:25.655Z,0.31
2019-02-06T04:32:25.625Z,0.25
2019-02-06T04:33:27.980Z,0.31
2019-02-06T04:34:25.611Z,0.31
2019-02-06T04:35:25.546Z,0.37
2019-02-06T04:36:25.453Z,0.31
2019-02-06T04:37:25.566Z,0.31
2019-02-06T04:38:25.496Z,0.31
2019-02-06T04:39:25.664Z,0.31
2019-02-06T04:40:25.446Z,0.31
2019-02-06T04:41:25.682Z,0.31
2019-02-06T04:42:25.647Z,0.31
2019-02-06T04:43:25.473Z,0.31
2019-02-06T04:44:25.696Z,0.31
2019-02-06T04:45:25.461Z,0.31
2019-02-06T04:46:26.053Z,0.25
2019-02-06T04:47:25.480Z,0.25
2019-02-06T04:48:27.363Z,0.19
2019-02-06T04:49:25.722Z,0.19
2019-02-06T04:50:25.708Z,0.19
2019-02-06T04:51:25.806Z,0.19
2019-02-06T04:52:25.507Z,0.19
2019-02-06T04:53:25.518Z,0.13
2019-02-06T04:54:25.884Z,0.19
2019-02-06T04:55:25.784Z,0.19
2019-02-06T04:56:28.645Z,0.19
2019-02-06T04:57:25.547Z,0.13
2019-02-06T04:58:25.607Z,0.13
2019-02-06T04:59:25.903Z,0.06
2019-02-06T05:00:25.664Z,0.06
2019-02-06T05:01:26.543Z,0.06
2019-02-06T05:02:25.949Z,0.06
2019-02-06T05:03:26.394Z,0.06
2019-02-06T05:04:25.550Z,0.06
2019-02-06T05:05:25.610Z,0
2019-02-06T05:06:25.454Z,0
2019-02-06T05:07:25.746Z,0
2019-02-06T05:08:25.576Z,0
2019-02-06T05:09:25.854Z,0.06
2019-02-06T05:10:25.423Z,0.13
2019-02-06T05:11:28.333Z,0.13
2019-02-06T05:12:25.852Z,0.19
2019-02-06T05:13:25.529Z,0.13
2019-02-06T05:14:25.689Z,0.19
2019-02-06T05:15:26.021Z,0.13
2019-02-06T05:16:25.684Z,0.19
2019-02-06T05:17:25.539Z,0.13
2019-02-06T05:18:25.665Z,0.13
2019-02-06T05:19:27.341Z,0.13
2019-02-06T05:20:25.861Z,0.13
2019-02-06T05:21:25.513Z,0.19
2019-02-06T05:22:25.399Z,0.19
2019-02-06T05:23:25.742Z,0.19
2019-02-06T05:24:25.755Z,0.19
2019-02-06T05:25:25.575Z,0.13
2019-02-06T05:26:27.511Z,0.13
2019-02-06T05:27:25.666Z,0.06
2019-02-06T05:28:25.553Z,0.06
2019-02-06T05:29:25.455Z,0.06
2019-02-06T05:30:25.386Z,0.06
2019-02-06T05:31:25.738Z,0
2019-02-06T05:32:25.596Z,-0.06
2019-02-06T05:33:25.695Z,-0.06
2019-02-06T05:34:25.638Z,-0.06
2019-02-06T05:35:25.728Z,-0.06
2019-02-06T05:36:25.843Z,0
2019-02-06T05:37:32.682Z,0
2019-02-06T05:38:25.593Z,-0.06
2019-02-06T05:39:25.651Z,-0.06
2019-02-06T05:40:25.767Z,0
2019-02-06T05:41:27.187Z,0
2019-02-06T05:42:25.707Z,0
2019-02-06T05:43:25.598Z,0
2019-02-06T05:44:25.529Z,0
2019-02-06T05:45:25.405Z,0
2019-02-06T05:46:25.757Z,0.06
2019-02-06T05:47:25.433Z,0
2019-02-06T05:48:25.432Z,0
2019-02-06T05:49:25.415Z,0
2019-02-06T05:50:25.607Z,-0.06
2019-02-06T05:51:25.359Z,-0.06
2019-02-06T05:52:25.423Z,-0.06
2019-02-06T05:53:25.348Z,-0.13
2019-02-06T05:54:25.411Z,-0.06
2019-02-06T05:55:25.756Z,-0.06
2019-02-06T05:56:27.521Z,-0.06
2019-02-06T05:57:25.686Z,-0.06
2019-02-06T05:58:25.439Z,-0.06
2019-02-06T05:59:25.378Z,-0.06
2019-02-06T06:00:25.345Z,-0.06
2019-02-06T06:01:25.442Z,-0.06
2019-02-06T06:02:25.617Z,-0.06
2019-02-06T06:03:25.319Z,-0.06
2019-02-06T06:04:25.401Z,-0.06
2019-02-06T06:05:25.544Z,-0.06
2019-02-06T06:06:25.340Z,-0.06
2019-02-06T06:07:25.319Z,-0.06
2019-02-06T06:08:25.359Z,-0.13
2019-02-06T06:09:25.382Z,-0.06
2019-02-06T06:10:25.356Z,-0.13
2019-02-06T06:11:27.609Z,-0.06
2019-02-06T06:12:25.326Z,-0.13
2019-02-06T06:13:25.350Z,-0.13
2019-02-06T06:14:25.551Z,-0.13
2019-02-06T06:15:25.341Z,-0.13
2019-02-06T06:16:25.357Z,-0.13
2019-02-06T06:17:25.381Z,-0.06
2019-02-06T06:18:26.087Z,-0.06
2019-02-06T06:19:25.689Z,-0.06
2019-02-06T06:20:25.617Z,-0.06
2019-02-06T06:21:25.356Z,-0.06
2019-02-06T06:22:25.304Z,-0.06
2019-02-06T06:23:26.049Z,-0.06
2019-02-06T06:24:25.761Z,-0.06
2019-02-06T06:25:25.705Z,-0.06
2019-02-06T06:26:27.804Z,-0.13
2019-02-06T06:27:25.357Z,-0.13
2019-02-06T06:28:25.582Z,-0.19
2019-02-06T06:29:25.431Z,-0.19
2019-02-06T06:30:25.341Z,-0.19
2019-02-06T06:31:25.301Z,-0.19
2019-02-06T06:32:25.447Z,-0.13
2019-02-06T06:33:26.550Z,-0.19
2019-02-06T06:34:25.629Z,-0.19
2019-02-06T06:35:25.616Z,-0.13
2019-02-06T06:36:25.366Z,-0.13
2019-02-06T06:37:25.310Z,-0.13
2019-02-06T06:38:25.454Z,-0.19
2019-02-06T06:39:25.465Z,-0.13
2019-02-06T06:40:25.489Z,-0.19
2019-02-06T06:41:27.500Z,-0.13
2019-02-06T06:42:25.303Z,-0.13
2019-02-06T06:43:25.495Z,-0.06
2019-02-06T06:44:25.341Z,-0.13
2019-02-06T06:45:25.337Z,-0.06
2019-02-06T06:46:27.168Z,-0.06
2019-02-06T06:47:25.369Z,0
2019-02-06T06:48:25.420Z,0
2019-02-06T06:49:25.471Z,0
2019-02-06T06:50:25.632Z,0.06
2019-02-06T06:51:25.614Z,0.06
2019-02-06T06:52:27.117Z,0.06
2019-02-06T06:53:25.364Z,0.06
2019-02-06T06:54:25.853Z,0.06
2019-02-06T06:55:25.744Z,0.06
2019-02-06T06:56:26.567Z,0.06
2019-02-06T06:57:25.229Z,0.06
2019-02-06T06:58:25.537Z,0.06
2019-02-06T06:59:25.497Z,0.06
2019-02-06T07:00:25.925Z,0.06
2019-02-06T07:01:25.328Z,0.06
2019-02-06T07:02:25.474Z,0
2019-02-06T07:03:25.794Z,0
2019-02-06T07:04:27.644Z,0.06
2019-02-06T07:05:25.679Z,0.06
2019-02-06T07:06:25.302Z,0.13
2019-02-06T07:07:25.728Z,0.06
2019-02-06T07:08:25.314Z,0.06
2019-02-06T07:09:25.300Z,0.06
2019-02-06T07:10:25.441Z,0.06
2019-02-06T07:11:25.595Z,0.13
2019-02-06T07:12:27.902Z,0.06
2019-02-06T07:13:25.650Z,0.13
2019-02-06T07:14:25.291Z,0.13
2019-02-06T07:15:25.681Z,0.13
2019-02-06T07:16:25.582Z,0.13
2019-02-06T07:17:27.100Z,0.13
2019-02-06T07:18:25.472Z,0.13
2019-02-06T07:19:26.552Z,0.06
2019-02-06T07:20:25.202Z,0.06
2019-02-06T07:21:25.257Z,0.06
2019-02-06T07:22:25.397Z,0.06
2019-02-06T07:23:26.732Z,0.06
2019-02-06T07:24:25.231Z,0
2019-02-06T07:25:25.244Z,-0.06
2019-02-06T07:26:25.534Z,-0.06
2019-02-06T07:27:26.967Z,0
2019-02-06T07:28:25.211Z,-0.06
2019-02-06T07:29:25.220Z,-0.06
2019-02-06T07:30:25.219Z,-0.13
2019-02-06T07:31:25.201Z,-0.06
2019-02-06T07:32:25.330Z,-0.06
2019-02-06T07:33:27.057Z,-0.06
2019-02-06T07:34:25.549Z,0
2019-02-06T07:35:25.192Z,0
2019-02-06T07:36:26.012Z,0.06
2019-02-06T07:37:25.238Z,0
2019-02-06T07:38:25.527Z,0
2019-02-06T07:39:25.364Z,0
2019-02-06T07:40:25.526Z,0
2019-02-06T07:41:25.427Z,0.06
2019-02-06T07:42:27.279Z,0.06
2019-02-06T07:43:25.341Z,0.06
2019-02-06T07:44:25.311Z,0.06
2019-02-06T07:45:25.180Z,0.13
2019-02-06T07:46:25.310Z,0.13
2019-02-06T07:47:25.183Z,0.13
2019-02-06T07:48:25.222Z,0.13
2019-02-06T07:49:25.180Z,0.19
2019-02-06T07:50:27.230Z,0.19
2019-02-06T07:51:25.598Z,0.19
2019-02-06T07:52:25.197Z,0.19
2019-02-06T07:53:25.182Z,0.19
2019-02-06T07:54:25.225Z,0.25
2019-02-06T07:55:25.336Z,0.25
2019-02-06T07:56:25.218Z,0.25
2019-02-06T07:57:26.506Z,0.25
2019-02-06T07:58:25.189Z,0.25
2019-02-06T07:59:25.199Z,0.25
2019-02-06T08:00:25.197Z,0.25
2019-02-06T08:01:25.181Z,0.25
2019-02-06T08:02:25.455Z,0.25
2019-02-06T08:03:25.155Z,0.25
2019-02-06T08:04:25.815Z,0.25
2019-02-06T08:05:27.531Z,0.25
2019-02-06T08:06:26.803Z,0.25
2019-02-06T08:07:25.183Z,0.25
2019-02-06T08:08:36.635Z,0.25
2019-02-06T08:09:25.126Z,0.25
2019-02-06T08:10:25.267Z,0.25
2019-02-06T08:11:25.140Z,0.25
2019-02-06T08:12:25.727Z,0.25
2019-02-06T08:13:25.482Z,0.31
2019-02-06T08:14:26.998Z,0.25
2019-02-06T08:15:25.182Z,0.31
2019-02-06T08:16:25.539Z,0.31
2019-02-06T08:17:25.676Z,0.31
2019-02-06T08:18:25.671Z,0.31
2019-02-06T08:19:25.388Z,0.31
2019-02-06T08:20:28.579Z,0.31
2019-02-06T08:21:25.234Z,0.31
2019-02-06T08:22:25.493Z,0.37
2019-02-06T08:23:25.197Z,0.31
2019-02-06T08:24:25.592Z,0.37
2019-02-06T08:25:25.383Z,0.37
2019-02-06T08:26:25.425Z,0.44
2019-02-06T08:27:26.843Z,0.44
2019-02-06T08:28:27.687Z,0.44
2019-02-06T08:29:25.747Z,0.5
2019-02-06T08:30:25.538Z,0.44
2019-02-06T08:31:25.206Z,0.5
2019-02-06T08:32:25.309Z,0.5
2019-02-06T08:33:25.464Z,0.5
2019-02-06T08:34:26.971Z,0.5
2019-02-06T08:35:25.435Z,0.56
2019-02-06T08:36:25.342Z,0.56
2019-02-06T08:37:25.112Z,0.56
2019-02-06T08:38:25.172Z,0.56
2019-02-06T08:39:26.322Z,0.56
2019-02-06T08:40:25.573Z,0.62
2019-02-06T08:41:25.098Z,0.62
2019-02-06T08:42:25.624Z,0.62
2019-02-06T08:43:26.657Z,0.69
2019-02-06T08:44:25.484Z,0.62
2019-02-06T08:45:25.139Z,0.69
2019-02-06T08:46:25.384Z,0.69
2019-02-06T08:47:25.893Z,0.75
2019-02-06T08:48:25.094Z,0.75
2019-02-06T08:49:25.201Z,0.81
2019-02-06T08:50:25.143Z,0.81
2019-02-06T08:51:27.220Z,0.81
2019-02-06T08:52:25.088Z,0.81
2019-02-06T08:53:25.095Z,0.81
2019-02-06T08:54:25.382Z,0.81
2019-02-06T08:55:25.409Z,0.81
2019-02-06T08:56:25.399Z,0.81
2019-02-06T08:57:25.415Z,0.81
2019-02-06T08:58:26.301Z,0.88
2019-02-06T08:59:25.419Z,0.81
2019-02-06T09:00:25.538Z,0.81
2019-02-06T09:01:25.290Z,0.88
2019-02-06T09:02:25.548Z,0.94
2019-02-06T09:03:25.241Z,0.94
2019-02-06T09:04:25.129Z,0.94
2019-02-06T09:05:25.346Z,1
2019-02-06T09:06:27.422Z,1
2019-02-06T09:07:25.207Z,1
2019-02-06T09:08:25.102Z,1
2019-02-06T09:09:25.613Z,1
2019-02-06T09:10:25.102Z,1
2019-02-06T09:11:25.322Z,1
2019-02-06T09:12:25.056Z,1
2019-02-06T09:13:25.182Z,1
2019-02-06T09:14:25.197Z,1
2019-02-06T09:15:27.925Z,1
2019-02-06T09:16:25.334Z,0.94
2019-02-06T09:17:25.066Z,0.94
2019-02-06T09:18:25.352Z,0.94
2019-02-06T09:19:25.515Z,1
2019-02-06T09:20:25.220Z,1
2019-02-06T09:21:26.699Z,1
2019-02-06T09:22:26.912Z,1
2019-02-06T09:23:25.025Z,0.94
2019-02-06T09:24:25.296Z,1.06
2019-02-06T09:25:25.441Z,1
2019-02-06T09:26:25.300Z,1.06
2019-02-06T09:27:25.135Z,1.06
2019-02-06T09:28:25.124Z,1.06
2019-02-06T09:29:27.265Z,1.06
2019-02-06T09:30:25.122Z,1.12
2019-02-06T09:31:25.087Z,1.12
2019-02-06T09:32:25.188Z,1.12
2019-02-06T09:33:25.089Z,1.19
2019-02-06T09:34:25.144Z,1.19
2019-02-06T09:35:25.157Z,1.19
2019-02-06T09:36:25.953Z,1.19
2019-02-06T09:37:25.105Z,1.25
2019-02-06T09:38:25.165Z,1.25
2019-02-06T09:39:25.059Z,1.31
2019-02-06T09:40:25.101Z,1.31
2019-02-06T09:41:25.081Z,1.31
2019-02-06T09:42:25.167Z,1.37
2019-02-06T09:43:27.816Z,1.37
2019-02-06T09:44:27.258Z,1.37
2019-02-06T09:45:25.157Z,1.44
2019-02-06T09:46:25.076Z,1.44
2019-02-06T09:47:25.059Z,1.44
2019-02-06T09:48:24.984Z,1.44
2019-02-06T09:49:25.296Z,1.5
2019-02-06T09:50:25.157Z,1.5
2019-02-06T09:51:25.479Z,1.5
2019-02-06T09:52:30.896Z,1.5
2019-02-06T09:53:25.027Z,1.5
2019-02-06T09:54:25.828Z,1.56
2019-02-06T09:55:25.120Z,1.56
2019-02-06T09:56:25.068Z,1.56
2019-02-06T09:57:25.264Z,1.62
2019-02-06T09:58:25.374Z,1.62
2019-02-06T09:59:27.665Z,1.62
2019-02-06T10:00:25.421Z,1.56
2019-02-06T10:01:25.882Z,1.62
2019-02-06T10:02:26.143Z,1.62
2019-02-06T10:03:25.220Z,1.62
2019-02-06T10:04:25.239Z,1.62
2019-02-06T10:05:25.106Z,1.69
2019-02-06T10:06:24.998Z,1.69
2019-02-06T10:07:25.001Z,1.69
2019-02-06T10:08:25.247Z,1.69
2019-02-06T10:09:26.093Z,1.69
2019-02-06T10:10:25.074Z,1.75
2019-02-06T10:11:25.188Z,1.75
2019-02-06T10:12:24.968Z,1.75
2019-02-06T10:13:25.152Z,1.81
2019-02-06T10:14:26.940Z,1.75
2019-02-06T10:15:25.083Z,1.81
2019-02-06T10:16:24.963Z,1.87
2019-02-06T10:17:24.976Z,1.87
2019-02-06T10:18:26.829Z,1.87
2019-02-06T10:19:25.284Z,1.94
2019-02-06T10:20:25.091Z,2
2019-02-06T10:21:25.132Z,1.87
2019-02-06T10:22:27.204Z,1.94
2019-02-06T10:23:24.958Z,2
2019-02-06T10:24:25.242Z,2
2019-02-06T10:25:25.273Z,1.94
2019-02-06T10:26:25.209Z,1.94
2019-02-06T10:27:25.191Z,2
2019-02-06T10:28:26.220Z,2
2019-02-06T10:29:25.162Z,2
2019-02-06T10:30:25.224Z,2
2019-02-06T10:31:25.253Z,2.06
2019-02-06T10:32:25.388Z,2.06
2019-02-06T10:33:25.183Z,2.12
2019-02-06T10:34:25.108Z,2.19
2019-02-06T10:35:25.246Z,2.19
2019-02-06T10:36:25.078Z,2.25
2019-02-06T10:37:29.371Z,2.25
2019-02-06T10:38:25.257Z,2.25
2019-02-06T10:39:35.197Z,2.31
2019-02-06T10:40:24.952Z,2.31
2019-02-06T10:41:25.128Z,2.44
2019-02-06T10:42:25.040Z,2.44
2019-02-06T10:43:36.240Z,2.5
2019-02-06T10:44:25.078Z,2.5
2019-02-06T10:45:27.455Z,2.56
2019-02-06T10:46:24.902Z,2.56
2019-02-06T10:47:24.950Z,2.56
2019-02-06T10:48:25.328Z,2.62
2019-02-06T10:49:25.446Z,2.62
2019-02-06T10:50:24.903Z,2.62
2019-02-06T10:51:25.073Z,2.62
2019-02-06T10:52:26.178Z,2.69
2019-02-06T10:53:24.957Z,2.75
2019-02-06T10:54:25.023Z,2.75
2019-02-06T10:55:24.892Z,2.75
2019-02-06T10:56:25.390Z,2.75
2019-02-06T10:57:24.975Z,2.81
2019-02-06T10:58:25.203Z,2.87
2019-02-06T10:59:24.911Z,2.87
2019-02-06T11:00:30.114Z,2.87
2019-02-06T11:01:25.408Z,2.87
2019-02-06T11:02:25.211Z,2.87
2019-02-06T11:03:25.031Z,2.94
2019-02-06T11:04:24.871Z,3
2019-02-06T11:05:24.879Z,3
2019-02-06T11:06:25.337Z,3
2019-02-06T11:07:25.365Z,3.06
2019-02-06T11:08:25.265Z,3.06
2019-02-06T11:09:25.526Z,3.12
2019-02-06T11:10:24.866Z,3.12
2019-02-06T11:11:25.082Z,3.12
2019-02-06T11:12:24.978Z,3.12
2019-02-06T11:13:25.174Z,3.12
2019-02-06T11:14:24.892Z,3.19
2019-02-06T11:15:27.141Z,3.25
2019-02-06T11:16:24.886Z,3.25
2019-02-06T11:17:24.864Z,3.31
2019-02-06T11:18:24.870Z,3.37
2019-02-06T11:19:24.867Z,3.37
2019-02-06T11:20:24.818Z,3.37
2019-02-06T11:21:25.457Z,3.37
2019-02-06T11:22:24.937Z,3.37
2019-02-06T11:23:27.091Z,3.44
2019-02-06T11:24:27.201Z,3.5
2019-02-06T11:25:24.882Z,3.5
2019-02-06T11:26:24.871Z,3.56
2019-02-06T11:27:24.889Z,3.62
2019-02-06T11:28:24.841Z,3.62
2019-02-06T11:29:25.428Z,3.62
2019-02-06T11:30:25.312Z,3.69
2019-02-06T11:31:24.865Z,3.75
2019-02-06T11:32:25.286Z,3.81
2019-02-06T11:33:25.213Z,3.81
2019-02-06T11:34:24.883Z,3.87
2019-02-06T11:35:25.073Z,3.94
2019-02-06T11:36:25.324Z,3.87
2019-02-06T11:37:24.858Z,3.87
2019-02-06T11:38:28.354Z,3.87
2019-02-06T11:39:25.174Z,3.94
2019-02-06T11:40:24.892Z,4
2019-02-06T11:41:25.043Z,4
2019-02-06T11:42:25.122Z,4.06
2019-02-06T11:43:24.816Z,4.06
2019-02-06T11:44:24.896Z,4.06
2019-02-06T11:45:25.218Z,4.12
2019-02-06T11:46:27.095Z,4.12
2019-02-06T11:47:24.931Z,4.12
2019-02-06T11:48:25.034Z,4.19
2019-02-06T11:49:24.881Z,4.19
2019-02-06T11:50:25.029Z,4.25
2019-02-06T11:51:26.665Z,4.25
2019-02-06T11:52:25.233Z,4.31
2019-02-06T11:53:26.885Z,4.31
2019-02-06T11:54:25.020Z,4.37
2019-02-06T11:55:24.950Z,4.5
2019-02-06T11:56:24.800Z,4.5
2019-02-06T11:57:25.318Z,4.56
2019-02-06T11:58:25.084Z,4.62
2019-02-06T11:59:25.050Z,4.69
2019-02-06T12:00:24.945Z,4.75
2019-02-06T12:01:26.902Z,4.75
2019-02-06T12:02:24.908Z,4.81
2019-02-06T12:03:24.866Z,4.87
2019-02-06T12:04:24.846Z,4.87
2019-02-06T12:05:25.219Z,4.87
2019-02-06T12:06:24.875Z,4.87
2019-02-06T12:07:24.798Z,4.94
2019-02-06T12:08:24.885Z,5
2019-02-06T12:09:27.396Z,5.06
2019-02-06T12:10:25.357Z,5.06
2019-02-06T12:11:25.264Z,5.12
2019-02-06T12:12:24.863Z,5.12
2019-02-06T12:13:25.060Z,5.12
2019-02-06T12:14:25.148Z,5.12
2019-02-06T12:15:25.093Z,5.06
2019-02-06T12:16:26.842Z,5.06
2019-02-06T12:17:24.856Z,5.12
2019-02-06T12:18:24.783Z,5.12
2019-02-06T12:19:25.816Z,5.19
2019-02-06T12:20:25.326Z,5.19
2019-02-06T12:21:24.766Z,5.25
2019-02-06T12:22:25.234Z,5.25
2019-02-06T12:23:32.786Z,5.25
2019-02-06T12:24:27.289Z,5.25
2019-02-06T12:25:25.241Z,5.31
2019-02-06T12:26:24.889Z,5.37
2019-02-06T12:27:25.160Z,5.37
2019-02-06T12:28:25.253Z,5.37
2019-02-06T12:29:25.207Z,5.37
2019-02-06T12:30:24.951Z,5.37
2019-02-06T12:31:26.313Z,5.37
2019-02-06T12:32:25.308Z,5.44
2019-02-06T12:33:24.904Z,5.5
2019-02-06T12:34:25.215Z,5.5
2019-02-06T12:35:24.911Z,5.5
2019-02-06T12:36:24.766Z,5.5
2019-02-06T12:37:24.772Z,5.56
2019-02-06T12:38:24.824Z,5.56
2019-02-06T12:39:24.840Z,5.62
2019-02-06T12:40:25.146Z,5.69
2019-02-06T12:41:24.895Z,5.75
2019-02-06T12:42:24.794Z,5.75
2019-02-06T12:43:24.802Z,5.81
2019-02-06T12:44:25.188Z,5.81
2019-02-06T12:45:26.916Z,5.81
2019-02-06T12:46:25.078Z,5.94
2019-02-06T12:47:27.189Z,5.94
2019-02-06T12:48:24.919Z,5.94
2019-02-06T12:49:24.755Z,6.06
2019-02-06T12:50:24.814Z,6.06
2019-02-06T12:51:24.779Z,6.06
2019-02-06T12:52:25.233Z,5.94
2019-02-06T12:53:30.965Z,5.94
2019-02-06T12:54:25.262Z,6
2019-02-06T12:55:24.935Z,6.06
2019-02-06T12:56:24.943Z,6.12
2019-02-06T12:57:37.728Z,6.19
2019-02-06T12:58:26.688Z,6.12
2019-02-06T12:59:25.037Z,6.19
2019-02-06T13:00:27.020Z,6.19
2019-02-06T13:01:24.779Z,6.12
2019-02-06T13:02:24.989Z,6.19
2019-02-06T13:03:25.458Z,6.12
2019-02-06T13:04:24.987Z,6.12
2019-02-06T13:05:25.909Z,6.06
2019-02-06T13:06:24.768Z,6.19
2019-02-06T13:07:24.902Z,6.19
2019-02-06T13:08:24.697Z,6.31
2019-02-06T13:09:24.690Z,6.25
2019-02-06T13:10:34.757Z,6.31
2019-02-06T13:11:24.776Z,6.31
2019-02-06T13:12:27.675Z,6.37
2019-02-06T13:13:24.759Z,6.31
2019-02-06T13:14:24.773Z,6.31
2019-02-06T13:15:27.016Z,6.31
2019-02-06T13:16:24.984Z,6.31
2019-02-06T13:17:27.121Z,6.31
2019-02-06T13:18:24.909Z,6.31
2019-02-06T13:19:24.821Z,6.31
2019-02-06T13:20:24.749Z,6.31
2019-02-06T13:21:25.092Z,6.31
2019-02-06T13:22:24.872Z,6.31
2019-02-06T13:23:27.270Z,6.31
2019-02-06T13:24:24.970Z,6.25
2019-02-06T13:25:24.692Z,6.31